Terminal Aerodrome Forecast
Issued by NWS

Home | Current Version | Previous Version | Text Only | Print | Product List | Glossary On
Versions: 1 2 3 4 5 6 7 8 9 10 11 12
000
FTUS43 KFGF 261124
TAFTVF
TAF
KTVF 261124Z 2612/2712 32006KT P6SM BKN070
     FM261300 32006KT P6SM SCT090
     FM261700 28006KT P6SM SCT200
     FM262000 25006KT P6SM SCT150
     FM262300 23005KT P6SM BKN130
      AMD NOT SKED=

USA.gov is the U.S. government's official web portal to all federal, state and local government web resources and services.